Norwegian Getaway — C6ZJ4 — position and weather

sailwx.info

Track history (hours):
 
Tides and Currents Weather Stations Pressure Air Temp Water Temp Dewpoint Dewpoint Depression Visibility Wind Speed Wind Dir Waves Ship Positions

Norwegian Getaway

Last reported at 2017-Nov-19 23:00 UTC. Time now 2017-Nov-24 09:33 UTC.
Position N 25°37' W 079°56'.

Length 326 m; draft 8.8 m.

Type: Passenger vessel. MMSI: 311050900.

Date/timePositionNaut miles runAvg speedWind from/ knotsBaromVisibWave heightAir tempDewpointWater temp
2017-Nov-19 23:00N 25°37' W 079°56'816.7
2017-Nov-19 22:30N 25°43' W 080°02'510.6
2017-Nov-19 22:00N 25°46' W 080°07'3 5.0
2017-Nov-19 21:30N 25°46' W 080°10'0 0.0
2017-Nov-19 21:00N 25°46' W 080°10'0 0.0
2017-Nov-19 20:30N 25°46' W 080°10'0 0.0
2017-Nov-19 20:00N 25°46' W 080°10'0 0.0
2017-Nov-19 19:30N 25°46' W 080°10'0 0.0
2017-Nov-19 19:00N 25°46' W 080°10'0 0.0
2017-Nov-19 18:30N 25°46' W 080°10'0 0.0
2017-Nov-19 18:00N 25°46' W 080°10'0 0.0
2017-Nov-19 17:27N 25°46' W 080°10'0 0.0
2017-Nov-19 17:00N 25°46' W 080°10'0 0.0
2017-Nov-19 16:30N 25°46' W 080°10'0 0.0
2017-Nov-19 16:00N 25°46' W 080°10'0 0.0
2017-Nov-19 15:24N 25°46' W 080°10'0 0.0
2017-Nov-19 14:57N 25°46' W 080°10'0 0.0
2017-Nov-19 14:30N 25°46' W 080°10'0 0.0
2017-Nov-19 14:00N 25°46' W 080°10'0 0.0
2017-Nov-19 13:30N 25°46' W 080°10'0 0.0
2017-Nov-19 12:57N 25°46' W 080°10'0 0.0
2017-Nov-19 12:30N 25°46' W 080°10'0 0.0
2017-Nov-19 12:00N 25°46' W 080°10'0 0.0
2017-Nov-19 11:31N 25°46' W 080°10'1 2.3
2017-Nov-19 11:01N 25°47' W 080°11'2 4.7
2017-Nov-19 10:30N 25°46' W 080°09'611.9
2017-Nov-19 10:00N 25°46' W 080°02'510.8
2017-Nov-19 09:30N 25°43' W 079°57'612.4
2017-Nov-19 09:00N 25°40' W 079°51'612.4
2017-Nov-19 08:30N 25°36' W 079°46'713.5
2017-Nov-19 08:00N 25°31' W 079°40'50114.9
2017-Nov-17 22:17N 20°32' W 086°57'1 4.1
2017-Nov-17 21:58N 20°31' W 086°57'0 0.0
2017-Nov-17 21:28N 20°31' W 086°57'0 0.0
2017-Nov-17 20:58N 20°31' W 086°57'0 0.0
2017-Nov-17 20:25N 20°31' W 086°57'0 0.0
2017-Nov-17 19:58N 20°31' W 086°57'0 0.0
2017-Nov-17 19:28N 20°31' W 086°57'0 0.0
2017-Nov-17 18:58N 20°31' W 086°57'0 0.0
2017-Nov-17 18:28N 20°31' W 086°57'0 0.0
2017-Nov-17 17:58N 20°31' W 086°57'0 0.0
2017-Nov-17 17:25N 20°31' W 086°57'0 0.0
2017-Nov-17 16:58N 20°31' W 086°57'0 0.0
2017-Nov-17 16:28N 20°31' W 086°57'0 0.0
2017-Nov-17 15:58N 20°31' W 086°57'0 0.0
2017-Nov-17 15:28N 20°31' W 086°57'0 0.0
2017-Nov-17 14:58N 20°31' W 086°57'0 0.0
2017-Nov-17 14:28N 20°31' W 086°57'0 0.0
2017-Nov-17 13:52N 20°31' W 086°57'0 0.0
2017-Nov-17 13:28N 20°31' W 086°57'0 0.0
2017-Nov-17 12:58N 20°31' W 086°57'0 0.0
2017-Nov-17 12:30N 20°31' W 086°57'2 3.8
2017-Nov-17 12:00N 20°30' W 086°59'511.0
2017-Nov-17 11:31N 20°26' W 087°03'  
2017-Nov-12 22:27N 25°35' W 079°56'817.6
2017-Nov-12 22:00N 25°42' W 080°01'612.3
2017-Nov-12 21:30N 25°46' W 080°06'4 7.6
2017-Nov-12 21:00N 25°46' W 080°10'0 0.1
2017-Nov-12 20:28N 25°46' W 080°10'0 0.0
2017-Nov-12 19:58N 25°46' W 080°10'0 0.0
2017-Nov-12 19:28N 25°46' W 080°10'0 0.0
2017-Nov-12 18:58N 25°46' W 080°10'0 0.0
2017-Nov-12 18:28N 25°46' W 080°10'0 0.0
2017-Nov-12 17:58N 25°46' W 080°10'0 0.0
2017-Nov-12 17:28N 25°46' W 080°10'0 0.0
2017-Nov-12 16:58N 25°46' W 080°10'0 0.0
2017-Nov-12 16:28N 25°46' W 080°10'0 0.0
2017-Nov-12 15:58N 25°46' W 080°10'0 0.0
2017-Nov-12 15:28N 25°46' W 080°10'0 0.0
2017-Nov-12 14:52N 25°46' W 080°10'0 0.0
2017-Nov-12 14:28N 25°46' W 080°10'0 0.0
2017-Nov-12 13:58N 25°46' W 080°10'0 0.0
2017-Nov-12 13:28N 25°46' W 080°10'0 0.0
2017-Nov-12 12:55N 25°46' W 080°10'0 0.0
2017-Nov-12 12:28N 25°46' W 080°10'0 0.0
2017-Nov-12 12:00N 25°46' W 080°10'0 0.3
2017-Nov-12 11:30N 25°47' W 080°10'0 0.6
2017-Nov-12 11:00N 25°47' W 080°10'4 8.9
2017-Nov-12 10:30N 25°46' W 080°05'4 7.2
2017-Nov-12 10:00N 25°46' W 080°01'4 8.7
2017-Nov-12 09:30N 25°43' W 079°57'713.0
2017-Nov-12 09:00N 25°40' W 079°52'612.9
2017-Nov-12 08:30N 25°36' W 079°46'612.3
2017-Nov-12 08:00N 25°31' W 079°41'17414.0
2017-Nov-11 19:38N 23°37' W 082°05'216.1
2017-Nov-11 19:29N 23°36' W 082°07'816.2
2017-Nov-11 18:59N 23°34' W 082°16'816.6
2017-Nov-11 18:29N 23°31' W 082°24'816.9
2017-Nov-11 17:59N 23°28' W 082°33'30215.6
2017-Nov-10 22:35N 20°32' W 086°57'1 7.7
2017-Nov-10 22:30N 20°31' W 086°57'0 0.9
2017-Nov-10 21:58N 20°31' W 086°57'0 0.0
2017-Nov-10 21:28N 20°31' W 086°57'0 0.0
2017-Nov-10 20:58N 20°31' W 086°57'0 0.0
2017-Nov-10 20:25N 20°31' W 086°57'0 0.0
2017-Nov-10 19:58N 20°31' W 086°57'0 0.0
2017-Nov-10 19:28N 20°31' W 086°57'0 0.0
2017-Nov-10 18:55N 20°31' W 086°57'0 0.0
2017-Nov-10 18:25N 20°31' W 086°57'0 0.0
2017-Nov-10 17:58N 20°31' W 086°57'0 0.0
2017-Nov-10 17:28N 20°31' W 086°57'0 0.0
2017-Nov-10 16:58N 20°31' W 086°57'0 0.0
2017-Nov-10 16:28N 20°31' W 086°57'0 0.0
2017-Nov-10 15:58N 20°31' W 086°57'0 0.0
2017-Nov-10 15:28N 20°31' W 086°57'0 0.0
2017-Nov-10 14:58N 20°31' W 086°57'0 0.0
2017-Nov-10 14:28N 20°31' W 086°57'0 0.0
2017-Nov-10 13:58N 20°31' W 086°57'0 0.0
2017-Nov-10 13:28N 20°31' W 086°57'0 0.0
2017-Nov-10 12:58N 20°31' W 086°57'0 0.0
2017-Nov-10 12:31N 20°31' W 086°57'0 1.0
2017-Nov-10 12:01N 20°30' W 086°58'5 9.8
2017-Nov-10 11:30N 20°27' W 087°02'  
Track history (hours):
 
Tides and Currents Weather Stations Pressure Air Temp Water Temp Dewpoint Dewpoint Depression Visibility Wind Speed Wind Dir Waves Ship Positions

Norwegian Getaway

Last reported at 2017-Nov-19 23:00 UTC. Time now 2017-Nov-24 09:33 UTC.
Position N 25°37' W 079°56'.

Length 326 m; draft 8.8 m.

Type: Passenger vessel. MMSI: 311050900.

Date/timePositionNaut miles runAvg speedWind from/ knotsBaromVisibWave heightAir tempDewpointWater temp
2017-Nov-19 23:00N 25°37' W 079°56'816.7
2017-Nov-19 22:30N 25°43' W 080°02'510.6
2017-Nov-19 22:00N 25°46' W 080°07'3 5.0
2017-Nov-19 21:30N 25°46' W 080°10'0 0.0
2017-Nov-19 21:00N 25°46' W 080°10'0 0.0
2017-Nov-19 20:30N 25°46' W 080°10'0 0.0
2017-Nov-19 20:00N 25°46' W 080°10'0 0.0
2017-Nov-19 19:30N 25°46' W 080°10'0 0.0
2017-Nov-19 19:00N 25°46' W 080°10'0 0.0
2017-Nov-19 18:30N 25°46' W 080°10'0 0.0
2017-Nov-19 18:00N 25°46' W 080°10'0 0.0
2017-Nov-19 17:27N 25°46' W 080°10'0 0.0
2017-Nov-19 17:00N 25°46' W 080°10'0 0.0
2017-Nov-19 16:30N 25°46' W 080°10'0 0.0
2017-Nov-19 16:00N 25°46' W 080°10'0 0.0
2017-Nov-19 15:24N 25°46' W 080°10'0 0.0
2017-Nov-19 14:57N 25°46' W 080°10'0 0.0
2017-Nov-19 14:30N 25°46' W 080°10'0 0.0
2017-Nov-19 14:00N 25°46' W 080°10'0 0.0
2017-Nov-19 13:30N 25°46' W 080°10'0 0.0
2017-Nov-19 12:57N 25°46' W 080°10'0 0.0
2017-Nov-19 12:30N 25°46' W 080°10'0 0.0
2017-Nov-19 12:00N 25°46' W 080°10'0 0.0
2017-Nov-19 11:31N 25°46' W 080°10'1 2.3
2017-Nov-19 11:01N 25°47' W 080°11'2 4.7
2017-Nov-19 10:30N 25°46' W 080°09'611.9
2017-Nov-19 10:00N 25°46' W 080°02'510.8
2017-Nov-19 09:30N 25°43' W 079°57'612.4
2017-Nov-19 09:00N 25°40' W 079°51'612.4
2017-Nov-19 08:30N 25°36' W 079°46'713.5
2017-Nov-19 08:00N 25°31' W 079°40'50114.9
2017-Nov-17 22:17N 20°32' W 086°57'1 4.1
2017-Nov-17 21:58N 20°31' W 086°57'0 0.0
2017-Nov-17 21:28N 20°31' W 086°57'0 0.0
2017-Nov-17 20:58N 20°31' W 086°57'0 0.0
2017-Nov-17 20:25N 20°31' W 086°57'0 0.0
2017-Nov-17 19:58N 20°31' W 086°57'0 0.0
2017-Nov-17 19:28N 20°31' W 086°57'0 0.0
2017-Nov-17 18:58N 20°31' W 086°57'0 0.0
2017-Nov-17 18:28N 20°31' W 086°57'0 0.0
2017-Nov-17 17:58N 20°31' W 086°57'0 0.0
2017-Nov-17 17:25N 20°31' W 086°57'0 0.0
2017-Nov-17 16:58N 20°31' W 086°57'0 0.0
2017-Nov-17 16:28N 20°31' W 086°57'0 0.0
2017-Nov-17 15:58N 20°31' W 086°57'0 0.0
2017-Nov-17 15:28N 20°31' W 086°57'0 0.0
2017-Nov-17 14:58N 20°31' W 086°57'0 0.0
2017-Nov-17 14:28N 20°31' W 086°57'0 0.0
2017-Nov-17 13:52N 20°31' W 086°57'0 0.0
2017-Nov-17 13:28N 20°31' W 086°57'0 0.0
2017-Nov-17 12:58N 20°31' W 086°57'0 0.0
2017-Nov-17 12:30N 20°31' W 086°57'2 3.8
2017-Nov-17 12:00N 20°30' W 086°59'511.0
2017-Nov-17 11:31N 20°26' W 087°03'  
2017-Nov-12 22:27N 25°35' W 079°56'817.6
2017-Nov-12 22:00N 25°42' W 080°01'612.3
2017-Nov-12 21:30N 25°46' W 080°06'4 7.6
2017-Nov-12 21:00N 25°46' W 080°10'0 0.1
2017-Nov-12 20:28N 25°46' W 080°10'0 0.0
2017-Nov-12 19:58N 25°46' W 080°10'0 0.0
2017-Nov-12 19:28N 25°46' W 080°10'0 0.0
2017-Nov-12 18:58N 25°46' W 080°10'0 0.0
2017-Nov-12 18:28N 25°46' W 080°10'0 0.0
2017-Nov-12 17:58N 25°46' W 080°10'0 0.0
2017-Nov-12 17:28N 25°46' W 080°10'0 0.0
2017-Nov-12 16:58N 25°46' W 080°10'0 0.0
2017-Nov-12 16:28N 25°46' W 080°10'0 0.0
2017-Nov-12 15:58N 25°46' W 080°10'0 0.0
2017-Nov-12 15:28N 25°46' W 080°10'0 0.0
2017-Nov-12 14:52N 25°46' W 080°10'0 0.0
2017-Nov-12 14:28N 25°46' W 080°10'0 0.0
2017-Nov-12 13:58N 25°46' W 080°10'0 0.0
2017-Nov-12 13:28N 25°46' W 080°10'0 0.0
2017-Nov-12 12:55N 25°46' W 080°10'0 0.0
2017-Nov-12 12:28N 25°46' W 080°10'0 0.0
2017-Nov-12 12:00N 25°46' W 080°10'0 0.3
2017-Nov-12 11:30N 25°47' W 080°10'0 0.6
2017-Nov-12 11:00N 25°47' W 080°10'4 8.9
2017-Nov-12 10:30N 25°46' W 080°05'4 7.2
2017-Nov-12 10:00N 25°46' W 080°01'4 8.7
2017-Nov-12 09:30N 25°43' W 079°57'713.0
2017-Nov-12 09:00N 25°40' W 079°52'612.9
2017-Nov-12 08:30N 25°36' W 079°46'612.3
2017-Nov-12 08:00N 25°31' W 079°41'17414.0
2017-Nov-11 19:38N 23°37' W 082°05'216.1
2017-Nov-11 19:29N 23°36' W 082°07'816.2
2017-Nov-11 18:59N 23°34' W 082°16'816.6
2017-Nov-11 18:29N 23°31' W 082°24'816.9
2017-Nov-11 17:59N 23°28' W 082°33'30215.6
2017-Nov-10 22:35N 20°32' W 086°57'1 7.7
2017-Nov-10 22:30N 20°31' W 086°57'0 0.9
2017-Nov-10 21:58N 20°31' W 086°57'0 0.0
2017-Nov-10 21:28N 20°31' W 086°57'0 0.0
2017-Nov-10 20:58N 20°31' W 086°57'0 0.0
2017-Nov-10 20:25N 20°31' W 086°57'0 0.0
2017-Nov-10 19:58N 20°31' W 086°57'0 0.0
2017-Nov-10 19:28N 20°31' W 086°57'0 0.0
2017-Nov-10 18:55N 20°31' W 086°57'0 0.0
2017-Nov-10 18:25N 20°31' W 086°57'0 0.0
2017-Nov-10 17:58N 20°31' W 086°57'0 0.0
2017-Nov-10 17:28N 20°31' W 086°57'0 0.0
2017-Nov-10 16:58N 20°31' W 086°57'0 0.0
2017-Nov-10 16:28N 20°31' W 086°57'0 0.0
2017-Nov-10 15:58N 20°31' W 086°57'0 0.0
2017-Nov-10 15:28N 20°31' W 086°57'0 0.0
2017-Nov-10 14:58N 20°31' W 086°57'0 0.0
2017-Nov-10 14:28N 20°31' W 086°57'0 0.0
2017-Nov-10 13:58N 20°31' W 086°57'0 0.0
2017-Nov-10 13:28N 20°31' W 086°57'0 0.0
2017-Nov-10 12:58N 20°31' W 086°57'0 0.0
2017-Nov-10 12:31N 20°31' W 086°57'0 1.0
2017-Nov-10 12:01N 20°30' W 086°58'5 9.8
2017-Nov-10 11:30N 20°27' W 087°02'  

Dump ship's entire track history